createdAt,value
2023-02-19T00:00:27.076Z,98111.28
2023-02-19T00:05:28.398Z,98123.94
2023-02-19T00:10:29.605Z,98104.97
2023-02-19T00:15:31.089Z,98111.19
2023-02-19T00:20:32.452Z,98099.06
2023-02-19T00:25:33.705Z,98097.41
2023-02-19T00:30:34.924Z,98104.63
2023-02-19T00:35:36.164Z,98106.25
2023-02-19T00:40:37.423Z,98107.56
2023-02-19T00:45:38.702Z,98104.97
2023-02-19T00:50:39.903Z,98106.22
2023-02-19T00:55:41.188Z,98102.88
2023-02-19T01:00:42.427Z,98103.56
2023-02-19T01:05:43.661Z,98101.41
2023-02-19T01:10:45.077Z,98091.00
2023-02-19T01:15:46.521Z,98088.84
2023-02-19T01:20:47.859Z,98084.88
2023-02-19T01:25:49.099Z,98075.72
2023-02-19T01:30:50.306Z,98072.94
2023-02-19T01:35:51.539Z,98064.13
2023-02-19T01:40:52.786Z,98047.91
2023-02-19T01:45:54.027Z,98041.06
2023-02-19T01:50:55.337Z,98038.63
2023-02-19T01:55:56.578Z,98029.59
2023-02-19T02:00:57.889Z,98030.50
2023-02-19T02:05:59.171Z,98021.63
2023-02-19T02:11:00.431Z,98018.38
2023-02-19T02:16:01.714Z,98007.25
2023-02-19T02:21:02.933Z,98005.97
2023-02-19T02:26:04.404Z,98006.72
2023-02-19T02:31:05.770Z,97979.78
2023-02-19T02:36:07.400Z,97974.53
2023-02-19T02:41:09.138Z,97953.19
2023-02-19T02:46:10.835Z,97963.38
2023-02-19T02:51:12.513Z,97962.81
2023-02-19T02:56:13.882Z,97944.25
2023-02-19T03:01:34.160Z,97931.50
2023-02-19T03:06:35.444Z,97935.97
2023-02-19T03:11:55.420Z,97933.91
2023-02-19T03:17:15.388Z,97947.31
2023-02-19T03:22:16.651Z,97938.19
2023-02-19T03:27:17.963Z,97935.16
2023-02-19T03:32:19.204Z,97930.44
2023-02-19T03:37:25.167Z,97923.59
2023-02-19T03:42:26.395Z,97917.22
2023-02-19T03:47:27.632Z,97924.53
2023-02-19T03:52:29.100Z,97927.81
2023-02-19T03:57:30.321Z,97929.91
2023-02-19T04:02:31.657Z,97919.44
2023-02-19T04:07:32.952Z,97907.47
2023-02-19T04:12:34.155Z,97904.44
2023-02-19T04:17:35.424Z,97898.91
2023-02-19T04:22:36.624Z,97891.59
2023-02-19T04:27:37.859Z,97890.75
2023-02-19T04:32:39.063Z,97905.25
2023-02-19T04:37:40.298Z,97903.28
2023-02-19T04:42:41.549Z,97904.81
2023-02-19T04:47:42.827Z,97916.22
2023-02-19T04:52:44.136Z,97919.66
2023-02-19T04:57:45.343Z,97925.03
2023-02-19T05:02:46.636Z,97913.53
2023-02-19T05:07:47.917Z,97913.84
2023-02-19T05:12:49.143Z,97924.47
2023-02-19T05:17:50.340Z,97926.78
2023-02-19T05:22:51.594Z,97934.00
2023-02-19T05:28:12.751Z,97935.84
2023-02-19T05:33:14.477Z,97944.91
2023-02-19T05:38:15.731Z,97945.56
2023-02-19T05:43:17.126Z,97948.16
2023-02-19T05:48:18.381Z,97960.34
2023-02-19T05:53:19.657Z,97950.28
2023-02-19T05:58:20.886Z,97952.09
2023-02-19T06:03:22.147Z,97957.56
2023-02-19T06:08:23.350Z,97952.88
2023-02-19T06:13:24.572Z,97960.59
2023-02-19T06:18:25.770Z,97958.78
2023-02-19T06:23:27.023Z,97956.34
2023-02-19T06:28:28.265Z,97961.59
2023-02-19T06:33:29.568Z,97970.84
2023-02-19T06:38:30.798Z,97963.81
2023-02-19T06:43:33.245Z,97968.59
2023-02-19T06:48:34.503Z,97982.47
2023-02-19T06:53:35.803Z,97995.13
2023-02-19T06:58:37.018Z,98000.34
2023-02-19T07:03:38.221Z,98009.88
2023-02-19T07:08:39.488Z,98022.72
2023-02-19T07:13:40.704Z,98023.78
2023-02-19T07:18:41.997Z,98018.84
2023-02-19T07:23:43.234Z,98028.00
2023-02-19T07:28:44.508Z,98010.44
2023-02-19T07:33:45.759Z,98018.41
2023-02-19T07:38:47.063Z,98030.72
2023-02-19T07:43:48.279Z,98032.31
2023-02-19T07:48:49.593Z,98044.72
2023-02-19T07:53:50.926Z,98048.28
2023-02-19T07:58:52.352Z,98044.16
2023-02-19T08:03:53.582Z,98060.19
2023-02-19T08:08:57.031Z,98055.25
2023-02-19T08:13:58.476Z,98057.25
2023-02-19T08:18:59.816Z,98063.75
2023-02-19T08:24:01.123Z,98068.25
2023-02-19T08:29:02.384Z,98078.91
2023-02-19T08:34:03.663Z,98075.22
2023-02-19T08:39:05.096Z,98077.78
2023-02-19T08:44:06.319Z,98078.44
2023-02-19T08:49:07.635Z,98072.53
2023-02-19T08:54:08.889Z,98077.63
2023-02-19T08:59:10.130Z,98087.97
2023-02-19T09:04:11.412Z,98089.66
2023-02-19T09:09:12.773Z,98096.91
2023-02-19T09:14:13.980Z,98075.22
2023-02-19T09:19:15.233Z,98093.66
2023-02-19T09:24:16.477Z,98113.88
2023-02-19T09:29:17.758Z,98098.13
2023-02-19T09:34:19.024Z,98092.75
2023-02-19T09:39:20.417Z,98095.28
2023-02-19T09:44:21.932Z,98083.31
2023-02-19T09:49:25.690Z,98079.03
2023-02-19T09:54:27.213Z,98092.28
2023-02-19T09:59:28.513Z,98100.00
2023-02-19T10:04:29.756Z,98115.31
2023-02-19T10:09:31.132Z,98131.84
2023-02-19T10:14:32.431Z,98127.69
2023-02-19T10:19:33.762Z,98130.13
2023-02-19T10:24:36.956Z,98128.47
2023-02-19T10:29:39.682Z,98126.50
2023-02-19T10:34:40.940Z,98136.41
2023-02-19T10:39:42.330Z,98135.50
2023-02-19T10:44:43.620Z,98145.91
2023-02-19T10:49:46.115Z,98162.25
2023-02-19T10:54:47.346Z,98159.84
2023-02-19T10:59:48.562Z,98176.41
2023-02-19T11:04:49.845Z,98163.06
2023-02-19T11:09:54.178Z,98186.63
2023-02-19T11:14:55.451Z,98170.25
2023-02-19T11:19:56.848Z,98160.69
2023-02-19T11:24:59.492Z,98153.31
2023-02-19T11:30:00.902Z,98146.22
2023-02-19T11:35:02.137Z,98138.59
2023-02-19T11:40:03.431Z,98140.19
2023-02-19T11:45:04.725Z,98132.81
2023-02-19T11:50:05.942Z,98131.31
2023-02-19T11:55:07.197Z,98141.97
2023-02-19T12:00:08.386Z,98119.00
2023-02-19T12:05:13.166Z,98120.75
2023-02-19T12:10:14.510Z,98127.75
2023-02-19T12:15:15.838Z,98142.06
2023-02-19T12:20:17.105Z,98135.50
2023-02-19T12:25:18.591Z,98128.66
2023-02-19T12:30:19.914Z,98144.94
2023-02-19T12:35:21.464Z,98146.13
2023-02-19T12:40:22.765Z,98139.72
2023-02-19T12:45:24.081Z,98141.25
2023-02-19T12:50:25.546Z,98121.34
2023-02-19T12:55:26.872Z,98139.97
2023-02-19T13:00:28.316Z,98149.47
2023-02-19T13:05:32.630Z,98180.31
2023-02-19T13:10:34.199Z,98197.84
2023-02-19T13:15:35.563Z,98197.75
2023-02-19T13:20:36.898Z,98204.31
2023-02-19T13:25:38.154Z,98197.41
2023-02-19T13:30:39.592Z,98186.16
2023-02-19T13:35:41.511Z,98170.69
2023-02-19T13:40:45.944Z,98159.06
2023-02-19T13:45:47.322Z,98156.94
2023-02-19T13:50:49.083Z,98148.44
2023-02-19T13:55:51.440Z,98143.31
2023-02-19T14:00:53.904Z,98134.53
2023-02-19T14:05:55.293Z,98122.13
2023-02-19T14:11:09.869Z,98092.53
2023-02-19T14:16:11.659Z,98095.06
2023-02-19T14:21:13.096Z,98112.53
2023-02-19T14:26:16.724Z,98111.53
2023-02-19T14:31:18.724Z,98114.59
2023-02-19T14:36:20.254Z,98118.75
2023-02-19T14:41:23.310Z,98126.34
2023-02-19T14:46:24.677Z,98130.59
2023-02-19T14:51:26.122Z,98143.63
2023-02-19T14:56:27.666Z,98155.13
2023-02-19T15:01:29.836Z,98164.28
2023-02-19T15:06:31.692Z,98187.53
2023-02-19T15:11:33.086Z,98182.06
2023-02-19T15:16:35.699Z,98198.94
2023-02-19T15:21:36.992Z,98217.47
2023-02-19T15:26:38.538Z,98235.06
2023-02-19T15:31:39.802Z,98260.72
2023-02-19T15:36:42.028Z,98260.38
2023-02-19T15:41:44.652Z,98271.16
2023-02-19T15:46:45.925Z,98288.56
2023-02-19T15:51:47.227Z,98316.16
2023-02-19T15:56:48.503Z,98318.84
2023-02-19T16:01:49.868Z,98327.44
2023-02-19T16:06:51.188Z,98331.16
2023-02-19T16:11:52.944Z,98328.72
2023-02-19T16:16:56.788Z,98347.25
2023-02-19T16:21:58.122Z,98355.28
2023-02-19T16:26:59.535Z,98363.69
2023-02-19T16:32:00.879Z,98382.47
2023-02-19T16:37:02.207Z,98383.31
2023-02-19T16:42:03.466Z,98377.28
2023-02-19T16:47:04.799Z,98379.06
2023-02-19T16:52:06.035Z,98375.00
2023-02-19T16:57:07.291Z,98371.38
2023-02-19T17:07:24.555Z,98390.31
2023-02-19T17:12:25.839Z,98401.94
2023-02-19T17:17:27.106Z,98413.69
2023-02-19T17:22:28.411Z,98418.16
2023-02-19T17:27:29.676Z,98420.19
2023-02-19T17:32:31.054Z,98419.97
2023-02-19T17:37:32.357Z,98424.03
2023-02-19T17:42:33.568Z,98437.97
2023-02-19T17:47:34.784Z,98447.50
2023-02-19T17:52:36.046Z,98465.69
2023-02-19T17:57:37.372Z,98468.03
2023-02-19T18:02:38.648Z,98480.59
2023-02-19T18:07:40.149Z,98479.94
2023-02-19T18:12:41.378Z,98494.69
2023-02-19T18:17:42.600Z,98503.34
2023-02-19T18:22:43.879Z,98507.16
2023-02-19T18:27:45.191Z,98503.81
2023-02-19T18:32:48.060Z,98519.31
2023-02-19T18:37:49.437Z,98526.41
2023-02-19T18:42:50.733Z,98549.97
2023-02-19T18:47:52.057Z,98552.56
2023-02-19T18:52:56.415Z,98557.94
2023-02-19T18:57:57.744Z,98561.44
2023-02-19T19:08:14.803Z,98568.41
2023-02-19T19:13:16.015Z,98572.84
2023-02-19T19:18:20.361Z,98575.56
2023-02-19T19:23:21.654Z,98568.41
2023-02-19T19:28:24.868Z,98551.66
2023-02-19T19:33:28.050Z,98555.81
2023-02-19T19:38:29.504Z,98544.53
2023-02-19T19:43:30.762Z,98553.09
2023-02-19T19:48:33.157Z,98547.44
2023-02-19T19:53:34.465Z,98558.94
2023-02-19T19:58:37.342Z,98564.56
2023-02-19T20:03:38.650Z,98576.03
2023-02-19T20:08:40.007Z,98599.22
2023-02-19T20:13:41.363Z,98611.88
2023-02-19T20:18:42.774Z,98613.59
2023-02-19T20:23:44.042Z,98622.03
2023-02-19T20:28:46.482Z,98628.22
2023-02-19T20:33:50.053Z,98630.56
2023-02-19T20:38:52.037Z,98629.66
2023-02-19T20:43:53.330Z,98627.16
2023-02-19T20:48:54.568Z,98622.75
2023-02-19T20:53:55.820Z,98622.03
2023-02-19T20:58:57.694Z,98628.63
2023-02-19T21:03:59.030Z,98630.47
2023-02-19T21:09:00.513Z,98632.53
2023-02-19T21:14:01.782Z,98638.25
2023-02-19T21:19:03.364Z,98636.63
2023-02-19T21:24:05.967Z,98641.00
2023-02-19T21:29:07.328Z,98632.44
2023-02-19T21:34:08.643Z,98629.06
2023-02-19T21:39:10.063Z,98645.03
2023-02-19T21:44:11.304Z,98640.91
2023-02-19T21:49:12.852Z,98642.78
2023-02-19T21:54:14.105Z,98650.53
2023-02-19T21:59:18.383Z,98651.97
2023-02-19T22:04:19.584Z,98646.53
2023-02-19T22:09:20.793Z,98635.63
2023-02-19T22:14:22.072Z,98634.53
2023-02-19T22:19:23.322Z,98636.41
2023-02-19T22:24:24.703Z,98642.03
2023-02-19T22:29:25.937Z,98639.69
2023-02-19T22:34:27.190Z,98643.53
2023-02-19T22:39:28.473Z,98646.31
2023-02-19T22:44:30.282Z,98656.69
2023-02-19T22:49:31.592Z,98651.47
2023-02-19T22:54:32.891Z,98657.88
2023-02-19T22:59:34.340Z,98653.16
2023-02-19T23:04:35.661Z,98646.88
2023-02-19T23:09:36.892Z,98645.00
2023-02-19T23:14:38.177Z,98637.88
2023-02-19T23:19:39.430Z,98622.19
2023-02-19T23:24:40.847Z,98618.97
2023-02-19T23:29:42.089Z,98624.06
2023-02-19T23:34:43.396Z,98613.06
2023-02-19T23:39:44.700Z,98631.50
2023-02-19T23:44:45.901Z,98622.25
2023-02-19T23:49:47.136Z,98616.16
2023-02-19T23:54:48.414Z,98619.16
2023-02-19T23:59:49.618Z,98612.47
